Time;durP1;ratioP1;P1;durP2;ratioP2;P2;SDS_P1;SDS_P2;PMS_P1;PMS_P2;Temp;Humidity;BMP_temperature;BMP_pressure;BME280_temperature;BME280_humidity;BME280_pressure;Samples;Min_cycle;Max_cycle;Signal;HPM_P1;HPM_P2
2022/06/16 00:02:13;;;;;;;3.13;2.33;;;25.30;49.50;;;;;;5109459;28;20101;-65
2022/06/16 00:04:46;;;;;;;2.50;2.30;;;25.30;49.50;;;;;;5109263;28;20048;-65
2022/06/16 00:07:17;;;;;;;3.08;2.78;;;25.30;49.50;;;;;;5110617;28;20058;-65
2022/06/16 00:09:44;;;;;;;2.55;2.10;;;25.30;49.60;;;;;;5109320;28;20545;-65
2022/06/16 00:12:11;;;;;;;3.75;2.88;;;25.30;49.60;;;;;;5110762;28;20101;-65
2022/06/16 00:14:39;;;;;;;3.35;2.40;;;25.30;49.60;;;;;;5110490;28;20039;-65
2022/06/16 00:17:06;;;;;;;3.90;2.50;;;25.30;49.60;;;;;;5110197;28;20130;-65
2022/06/16 00:19:34;;;;;;;2.70;2.50;;;25.20;49.50;;;;;;5110239;28;20100;-65
2022/06/16 00:22:01;;;;;;;3.35;2.80;;;25.20;49.60;;;;;;5110277;28;20044;-65
2022/06/16 00:24:28;;;;;;;2.78;2.58;;;25.20;49.60;;;;;;5108742;28;20090;-65
2022/06/16 00:26:56;;;;;;;3.22;2.22;;;25.20;49.60;;;;;;5110041;28;20051;-65
2022/06/16 00:29:25;;;;;;;3.15;2.55;;;25.20;49.60;;;;;;5109635;28;20047;-65
2022/06/16 00:31:53;;;;;;;2.88;2.58;;;25.20;49.70;;;;;;5110046;28;20098;-65
2022/06/16 00:34:20;;;;;;;3.67;2.50;;;25.20;49.70;;;;;;5110329;28;20145;-65
2022/06/16 00:36:48;;;;;;;2.72;2.53;;;25.20;49.70;;;;;;5109708;28;20048;-65
2022/06/16 00:39:15;;;;;;;2.63;2.13;;;25.10;49.70;;;;;;5108786;28;20044;-65
2022/06/16 00:41:42;;;;;;;2.88;2.00;;;25.10;49.70;;;;;;5110052;28;20126;-65
2022/06/16 00:44:38;;;;;;;2.50;2.30;;;25.20;49.80;;;;;;5091685;28;20047;-65
2022/06/16 00:47:06;;;;;;;2.63;2.42;;;25.10;49.70;;;;;;5109457;28;20035;-65
2022/06/16 00:49:36;;;;;;;2.83;2.60;;;25.10;49.70;;;;;;5109628;28;20090;-65
2022/06/16 00:52:10;;;;;;;2.20;2.00;;;25.20;49.80;;;;;;5108623;28;20058;-65
2022/06/16 00:55:05;;;;;;;2.33;2.13;;;25.10;49.70;;;;;;5109428;27;20047;-65
2022/06/16 00:57:37;;;;;;;4.03;2.45;;;25.10;49.70;;;;;;5109573;28;20047;-65
2022/06/16 01:00:33;;;;;;;3.28;2.13;;;25.10;49.70;;;;;;5109037;28;20083;-65
2022/06/16 01:02:56;;;;;;;3.13;1.67;;;25.10;49.70;;;;;;5108888;28;20088;-65
2022/06/16 01:05:24;;;;;;;5.35;2.33;;;25.10;49.80;;;;;;5109339;28;20047;-65
2022/06/16 01:07:53;;;;;;;2.63;2.30;;;25.10;49.80;;;;;;5109237;28;20078;-65
2022/06/16 01:10:20;;;;;;;2.85;2.55;;;25.10;49.80;;;;;;5109644;28;20195;-65
2022/06/16 01:13:43;;;;;;;2.35;2.15;;;25.10;49.80;;;;;;5108110;28;20124;-65
2022/06/16 01:16:33;;;;;;;2.50;2.00;;;25.10;49.80;;;;;;5108573;28;20051;-65
2022/06/16 01:19:30;;;;;;;4.30;2.15;;;25.10;49.90;;;;;;5108653;28;20044;-65
2022/06/16 01:22:26;;;;;;;2.75;2.17;;;25.10;49.90;;;;;;5109184;28;20116;-65
2022/06/16 01:25:08;;;;;;;2.33;2.05;;;25.10;49.90;;;;;;5108757;28;20083;-66
2022/06/16 01:28:15;;;;;;;5.13;2.83;;;25.10;49.90;;;;;;5108985;28;20079;-65
2022/06/16 01:31:16;;;;;;;3.58;2.55;;;25.10;50.00;;;;;;5108895;28;20085;-65
2022/06/16 01:34:00;;;;;;;3.40;2.40;;;25.10;49.90;;;;;;5108802;28;20051;-65
2022/06/16 01:36:36;;;;;;;2.90;2.30;;;25.10;50.00;;;;;;5108689;28;20511;-65
2022/06/16 01:39:26;;;;;;;2.30;1.92;;;25.10;50.00;;;;;;5108579;28;20130;-65
2022/06/16 01:42:12;;;;;;;2.90;2.00;;;25.10;50.00;;;;;;5108688;28;20528;-65
2022/06/16 01:44:58;;;;;;;3.47;2.15;;;25.00;49.90;;;;;;5108603;28;20051;-65
2022/06/16 01:47:30;;;;;;;1.90;1.80;;;25.00;50.00;;;;;;5108950;28;20086;-65
2022/06/16 01:50:09;;;;;;;2.75;2.33;;;25.00;50.00;;;;;;5108801;27;20044;-65
2022/06/16 01:52:47;;;;;;;2.45;2.22;;;25.00;50.00;;;;;;5108959;28;20519;-65
2022/06/16 01:55:19;;;;;;;2.28;2.08;;;25.00;50.00;;;;;;5108252;28;20059;-65
2022/06/16 01:57:53;;;;;;;2.10;1.88;;;25.00;50.00;;;;;;5107232;28;20047;-65
2022/06/16 02:00:24;;;;;;;1.98;1.83;;;24.90;50.00;;;;;;5108080;28;20086;-65
2022/06/16 02:03:12;;;;;;;2.38;2.17;;;25.00;50.10;;;;;;5108663;28;20116;-66
2022/06/16 02:05:50;;;;;;;2.47;2.13;;;24.90;50.00;;;;;;5107965;28;20101;-65
2022/06/16 02:08:37;;;;;;;1.85;1.45;;;24.90;50.00;;;;;;5108625;28;20082;-65
2022/06/16 02:11:27;;;;;;;2.65;2.00;;;25.00;50.10;;;;;;5108175;28;20056;-65
2022/06/16 02:14:08;;;;;;;3.65;2.38;;;24.90;50.10;;;;;;5108126;27;20079;-65
2022/06/16 02:16:37;;;;;;;1.85;1.75;;;24.90;50.10;;;;;;5108589;28;20277;-65
2022/06/16 02:19:10;;;;;;;1.88;1.77;;;24.90;50.10;;;;;;5108266;28;20046;-65
2022/06/16 02:21:40;;;;;;;1.90;1.70;;;24.90;50.10;;;;;;5108641;28;20075;-65
2022/06/16 02:24:13;;;;;;;1.65;1.55;;;24.90;50.10;;;;;;5108210;28;20044;-65
2022/06/16 02:26:41;;;;;;;1.85;1.67;;;24.90;50.20;;;;;;5107848;28;20051;-65
2022/06/16 02:29:37;;;;;;;2.45;1.90;;;24.90;50.20;;;;;;5107579;28;20126;-65
2022/06/16 02:32:25;;;;;;;2.20;2.00;;;24.90;50.10;;;;;;5106943;28;20047;-65
2022/06/16 02:35:18;;;;;;;2.20;2.00;;;24.90;50.20;;;;;;5107692;28;20545;-65
2022/06/16 02:38:16;;;;;;;2.45;1.90;;;24.90;50.20;;;;;;5106894;28;20130;-65
2022/06/16 02:41:04;;;;;;;2.15;1.77;;;24.90;50.10;;;;;;5107058;28;20055;-65
2022/06/16 02:43:49;;;;;;;1.70;1.60;;;24.90;50.10;;;;;;5107798;28;20043;-65
2022/06/16 02:46:39;;;;;;;1.70;1.58;;;24.90;50.10;;;;;;5106990;28;20040;-65
2022/06/16 02:49:17;;;;;;;;;;;24.90;50.20;;;;;;5108011;28;20058;-65
2022/06/16 02:52:09;;;;;;;1.85;1.75;;;24.90;50.10;;;;;;5107762;28;20442;-65
2022/06/16 02:55:04;;;;;;;1.98;1.70;;;24.90;50.10;;;;;;5106390;28;20047;-65
2022/06/16 02:57:41;;;;;;;1.67;1.58;;;24.90;50.10;;;;;;5107504;28;20048;-65
2022/06/16 03:00:12;;;;;;;1.42;1.33;;;24.90;50.10;;;;;;5107588;27;20079;-65
2022/06/16 03:02:41;;;;;;;2.50;2.22;;;24.90;50.10;;;;;;5106846;28;20079;-65
2022/06/16 03:05:11;;;;;;;2.35;1.80;;;24.90;50.10;;;;;;5107504;28;20043;-65
2022/06/16 03:07:41;;;;;;;2.20;1.77;;;24.90;50.10;;;;;;5107546;28;20093;-65
2022/06/16 03:10:11;;;;;;;1.90;1.73;;;24.90;50.10;;;;;;5106139;28;20551;-64
2022/06/16 03:12:39;;;;;;;2.05;1.90;;;24.90;50.10;;;;;;5106517;28;20131;-64
2022/06/16 03:15:07;;;;;;;1.50;1.40;;;24.90;50.10;;;;;;5106220;28;20052;-64
2022/06/16 03:17:34;;;;;;;1.67;1.67;;;24.90;50.10;;;;;;5107436;28;20047;-64
2022/06/16 03:20:01;;;;;;;2.17;1.77;;;24.90;50.10;;;;;;5107751;28;20180;-64
2022/06/16 03:22:28;;;;;;;1.75;1.65;;;24.90;50.10;;;;;;5107511;28;20048;-64
2022/06/16 03:24:55;;;;;;;1.95;1.85;;;24.90;50.10;;;;;;5107579;28;20044;-64
2022/06/16 03:27:22;;;;;;;2.72;1.98;;;24.90;50.10;;;;;;5106986;28;20043;-64
2022/06/16 03:29:52;;;;;;;3.80;1.60;;;25.00;50.10;;;;;;5097865;28;20086;-64
2022/06/16 03:32:19;;;;;;;2.08;1.83;;;25.00;50.00;;;;;;5079462;28;20386;-64
2022/06/16 03:34:46;;;;;;;2.15;1.40;;;25.00;50.00;;;;;;5100615;28;20048;-64
2022/06/16 03:37:13;;;;;;;3.53;1.52;;;25.00;50.00;;;;;;5095097;28;20048;-64
2022/06/16 03:39:40;;;;;;;2.42;1.67;;;25.00;49.90;;;;;;5097661;28;20079;-64
2022/06/16 03:42:08;;;;;;;1.60;1.50;;;25.00;49.90;;;;;;5094984;28;20036;-65
2022/06/16 03:44:36;;;;;;;1.70;1.60;;;25.10;49.90;;;;;;5094689;28;20121;-63
2022/06/16 03:47:03;;;;;;;1.70;1.60;;;25.10;49.90;;;;;;5110517;28;20087;-64
2022/06/16 03:49:30;;;;;;;1.60;1.50;;;25.10;49.80;;;;;;5110333;27;20559;-64
2022/06/16 03:51:57;;;;;;;2.17;1.70;;;25.10;49.70;;;;;;5097989;28;20090;-63
2022/06/16 03:54:25;;;;;;;1.75;1.65;;;25.10;49.70;;;;;;5098838;28;20281;-64
2022/06/16 03:56:52;;;;;;;1.80;1.70;;;25.10;49.70;;;;;;5094613;28;20075;-64
2022/06/16 03:59:21;;;;;;;2.00;1.77;;;25.10;50.20;;;;;;5090222;28;20553;-64
2022/06/16 04:01:48;;;;;;;1.65;1.52;;;25.10;49.60;;;;;;5089082;28;20067;-64
2022/06/16 04:04:19;;;;;;;2.50;1.70;;;25.10;49.50;;;;;;5089980;28;20048;-64
2022/06/16 04:06:46;;;;;;;1.95;1.77;;;25.20;49.50;;;;;;5089709;28;20133;-64
2022/06/16 04:09:13;;;;;;;1.65;1.55;;;25.20;49.50;;;;;;5090132;28;20101;-64
2022/06/16 04:11:41;;;;;;;1.88;1.77;;;25.20;49.40;;;;;;5107493;28;20127;-63
2022/06/16 04:14:11;;;;;;;3.40;1.40;;;25.20;49.40;;;;;;5110469;28;20135;-63
2022/06/16 04:16:41;;;;;;;1.40;1.38;;;25.20;49.30;;;;;;5110027;28;20139;-64
2022/06/16 04:19:11;;;;;;;2.38;1.75;;;25.30;49.30;;;;;;5109808;28;20488;-64
2022/06/16 04:21:40;;;;;;;1.42;1.33;;;25.30;49.30;;;;;;5110393;28;20039;-64
2022/06/16 04:24:08;;;;;;;1.80;1.70;;;25.30;49.20;;;;;;5110469;28;20089;-63
2022/06/16 04:26:39;;;;;;;2.03;1.85;;;25.40;49.10;;;;;;5110121;28;20044;-64
2022/06/16 04:29:09;;;;;;;2.67;1.70;;;25.40;49.00;;;;;;5110087;28;20048;-64
2022/06/16 04:31:37;;;;;;;1.70;1.60;;;25.40;49.00;;;;;;5109965;28;20615;-64
2022/06/16 04:34:05;;;;;;;1.35;1.25;;;25.40;48.80;;;;;;5110215;28;20051;-63
2022/06/16 04:36:32;;;;;;;1.67;1.33;;;25.50;48.80;;;;;;5109690;28;20093;-64
2022/06/16 04:39:00;;;;;;;1.70;1.60;;;25.50;48.70;;;;;;5109149;28;20130;-64
2022/06/16 04:41:27;;;;;;;2.03;1.67;;;25.50;48.60;;;;;;5086395;28;20059;-64
2022/06/16 04:43:55;;;;;;;1.65;1.55;;;25.60;48.50;;;;;;5095571;28;20508;-64
2022/06/16 04:46:24;;;;;;;1.60;1.50;;;25.70;48.50;;;;;;5098099;28;20075;-64
2022/06/16 04:48:52;;;;;;;1.50;1.40;;;25.70;48.40;;;;;;5093051;28;20096;-64
2022/06/16 04:51:19;;;;;;;1.40;1.30;;;25.70;48.20;;;;;;5096479;28;20624;-64
2022/06/16 04:53:46;;;;;;;1.60;1.50;;;25.70;48.10;;;;;;5100674;28;20130;-63
2022/06/16 04:56:13;;;;;;;1.80;1.65;;;25.80;48.00;;;;;;5097271;28;20101;-64
2022/06/16 04:58:40;;;;;;;4.30;2.10;;;25.80;48.00;;;;;;5092726;28;20385;-64
2022/06/16 05:01:09;;;;;;;2.60;2.40;;;25.80;47.80;;;;;;5096989;28;20070;-64
2022/06/16 05:03:47;;;;;;;3.30;2.55;;;25.90;47.80;;;;;;5091192;28;20052;-64
2022/06/16 05:06:14;;;;;;;3.08;2.47;;;25.90;47.80;;;;;;5095197;28;20082;-65
2022/06/16 05:08:41;;;;;;;2.95;2.40;;;25.90;47.80;;;;;;5093013;28;20056;-66
2022/06/16 05:11:09;;;;;;;2.10;2.00;;;25.90;47.70;;;;;;5094125;27;20074;-66
2022/06/16 05:13:36;;;;;;;2.40;2.20;;;25.80;47.80;;;;;;5092383;28;20048;-63
2022/06/16 05:16:03;;;;;;;2.72;2.53;;;25.70;48.00;;;;;;5100096;28;20198;-63
2022/06/16 05:18:30;;;;;;;2.80;2.45;;;25.60;48.50;;;;;;5102814;28;20052;-62
2022/06/16 05:21:12;;;;;;;3.53;2.50;;;25.40;48.90;;;;;;5096871;27;20082;-63
2022/06/16 05:23:39;;;;;;;2.65;2.45;;;25.10;49.40;;;;;;5088792;28;20048;-62
2022/06/16 05:26:08;;;;;;;2.70;2.50;;;24.80;50.00;;;;;;5088927;28;20036;-62
2022/06/16 05:28:36;;;;;;;4.00;2.40;;;24.50;50.30;;;;;;5088183;28;20071;-63
2022/06/16 05:31:04;;;;;;;3.42;2.47;;;24.20;50.00;;;;;;5091086;28;20042;-65
2022/06/16 05:33:32;;;;;;;2.67;2.47;;;23.80;49.80;;;;;;5091753;27;20062;-66
2022/06/16 05:36:01;;;;;;;2.30;2.10;;;23.50;49.50;;;;;;5086383;28;20039;-66
2022/06/16 05:38:29;;;;;;;3.40;2.72;;;23.20;49.40;;;;;;5084148;28;20472;-66
2022/06/16 05:40:58;;;;;;;2.67;2.47;;;22.80;49.40;;;;;;5093568;27;20075;-64
2022/06/16 05:43:26;;;;;;;3.80;3.03;;;22.40;49.80;;;;;;5087151;28;20048;-66
2022/06/16 05:45:53;;;;;;;4.60;2.78;;;22.10;49.80;;;;;;5083815;28;20097;-65
2022/06/16 05:48:21;;;;;;;5.70;3.33;;;21.80;50.60;;;;;;5084857;28;20052;-61
2022/06/16 05:50:49;;;;;;;4.22;3.28;;;21.50;51.00;;;;;;5086078;28;20047;-64
2022/06/16 05:53:16;;;;;;;5.82;3.80;;;21.20;51.50;;;;;;5088390;28;21910;-63
2022/06/16 05:55:44;;;;;;;6.55;3.25;;;21.10;53.00;;;;;;5089614;28;20052;-65
2022/06/16 05:58:12;;;;;;;4.35;3.30;;;20.90;53.50;;;;;;5086557;28;20082;-65
2022/06/16 06:00:39;;;;;;;5.13;3.10;;;20.70;53.30;;;;;;5086749;28;20044;-63
2022/06/16 06:03:06;;;;;;;6.43;3.70;;;20.60;53.60;;;;;;5093703;27;20076;-62
2022/06/16 06:05:33;;;;;;;5.50;3.65;;;20.40;53.90;;;;;;5088396;28;20051;-62
2022/06/16 06:16:29;;;;;;;4.75;3.25;;;20.00;56.00;;;;;;5085058;28;20047;-65
2022/06/16 06:19:23;;;;;;;3.83;3.42;;;20.00;56.50;;;;;;5086323;28;20036;-63
2022/06/16 06:22:02;;;;;;;5.22;3.20;;;20.00;56.30;;;;;;5087915;28;20055;-63
2022/06/16 06:24:37;;;;;;;5.72;3.15;;;20.00;56.70;;;;;;5096794;27;20424;-64
2022/06/16 06:27:10;;;;;;;6.22;2.97;;;19.90;56.60;;;;;;5085669;28;20079;-65
2022/06/16 06:29:38;;;;;;;2.88;2.55;;;19.90;57.40;;;;;;5093000;28;20050;-64
2022/06/16 06:32:05;;;;;;;3.72;2.70;;;20.00;57.30;;;;;;5097823;28;20069;-63
2022/06/16 06:34:33;;;;;;;4.95;2.83;;;20.00;57.20;;;;;;5092389;28;20044;-66
2022/06/16 06:37:01;;;;;;;5.03;2.60;;;20.00;57.20;;;;;;5093891;28;20457;-65
2022/06/16 06:39:28;;;;;;;3.45;2.45;;;20.00;57.00;;;;;;5090443;28;20101;-63
2022/06/16 06:41:56;;;;;;;5.95;2.38;;;20.00;57.00;;;;;;5092157;28;20047;-63
2022/06/16 06:44:23;;;;;;;8.32;2.50;;;20.00;56.90;;;;;;5086684;28;20069;-64
2022/06/16 06:46:51;;;;;;;3.13;2.75;;;20.00;56.80;;;;;;5089290;28;20151;-64
2022/06/16 06:49:19;;;;;;;5.38;2.28;;;20.00;56.70;;;;;;5090288;28;20496;-66
2022/06/16 06:51:47;;;;;;;2.08;1.98;;;20.10;56.70;;;;;;5086491;28;20040;-66
2022/06/16 06:54:14;;;;;;;2.70;2.50;;;20.10;56.90;;;;;;5086759;28;20503;-65
2022/06/16 06:56:41;;;;;;;2.97;2.67;;;20.10;56.80;;;;;;5092774;28;20052;-67
2022/06/16 06:59:13;;;;;;;2.92;2.10;;;20.10;56.90;;;;;;5087529;28;20051;-69
2022/06/16 07:01:40;;;;;;;2.10;1.90;;;20.10;56.90;;;;;;5096301;27;20066;-71
2022/06/16 07:04:08;;;;;;;2.65;2.10;;;20.10;56.90;;;;;;5089995;28;20048;-70
2022/06/16 07:06:36;;;;;;;2.63;2.20;;;20.20;57.10;;;;;;5096079;28;20117;-71
2022/06/16 07:09:05;;;;;;;5.60;2.38;;;20.20;57.10;;;;;;5090948;28;20101;-68
2022/06/16 07:11:32;;;;;;;2.95;2.00;;;20.30;57.60;;;;;;5091958;27;20043;-69
2022/06/16 07:14:00;;;;;;;4.65;2.47;;;20.20;57.40;;;;;;5091517;28;20561;-68
2022/06/16 07:16:28;;;;;;;3.33;1.88;;;20.30;57.20;;;;;;5088741;28;20052;-71
2022/06/16 07:18:55;;;;;;;2.00;1.90;;;20.30;57.10;;;;;;5088949;28;20135;-69
2022/06/16 07:21:23;;;;;;;2.15;2.05;;;20.40;56.90;;;;;;5092106;28;20044;-70
2022/06/16 07:23:51;;;;;;;2.00;1.70;;;20.40;56.70;;;;;;5095679;28;20446;-68
2022/06/16 07:26:19;;;;;;;2.35;2.17;;;20.40;56.70;;;;;;5093556;28;20084;-72
2022/06/16 07:28:47;;;;;;;4.40;2.05;;;20.40;56.60;;;;;;5088817;28;20055;-70
2022/06/16 07:31:17;;;;;;;1.77;1.67;;;20.50;56.50;;;;;;5091715;28;20051;-68
2022/06/16 07:34:01;;;;;;;1.90;1.70;;;20.40;56.20;;;;;;5088620;28;20047;-69
2022/06/16 07:36:29;;;;;;;2.38;1.80;;;20.50;56.30;;;;;;5088509;28;20048;-69
2022/06/16 07:38:57;;;;;;;3.00;2.03;;;20.50;56.30;;;;;;5091813;28;20048;-69
2022/06/16 07:41:34;;;;;;;1.85;1.75;;;20.50;56.20;;;;;;5085385;28;20052;-69
2022/06/16 07:44:11;;;;;;;1.90;1.80;;;20.50;56.30;;;;;;5085359;28;20051;-67
2022/06/16 07:46:42;;;;;;;3.22;2.15;;;20.40;56.30;;;;;;5097455;28;20167;-66
2022/06/16 07:49:13;;;;;;;;;;;20.40;56.30;;;;;;5091282;28;20070;-67
2022/06/16 07:51:42;;;;;;;2.00;1.90;;;20.40;56.60;;;;;;5093829;28;20358;-66
2022/06/16 07:54:14;;;;;;;2.00;1.77;;;20.40;56.50;;;;;;5089028;28;20052;-67
2022/06/16 07:57:02;;;;;;;3.47;1.92;;;20.50;56.70;;;;;;5087430;28;20388;-67
2022/06/16 07:59:30;;;;;;;1.85;1.75;;;20.50;56.80;;;;;;5088028;28;20055;-67
2022/06/16 08:01:57;;;;;;;1.70;1.60;;;20.50;56.80;;;;;;5078068;28;20058;-66
2022/06/16 08:04:25;;;;;;;1.88;1.58;;;20.50;56.90;;;;;;5081427;28;20044;-67
2022/06/16 08:06:52;;;;;;;2.47;2.03;;;20.60;57.00;;;;;;5087718;28;20508;-67
2022/06/16 08:09:19;;;;;;;4.53;1.88;;;20.50;57.00;;;;;;5082624;28;20404;-66
2022/06/16 08:12:03;;;;;;;3.30;1.77;;;20.50;57.30;;;;;;5086836;28;20079;-67
2022/06/16 08:14:31;;;;;;;2.08;1.88;;;20.50;57.50;;;;;;5089493;28;20684;-67
2022/06/16 08:16:59;;;;;;;2.60;1.77;;;20.50;57.50;;;;;;5095360;28;20089;-67
2022/06/16 08:19:27;;;;;;;2.67;2.10;;;20.50;57.60;;;;;;5084662;28;20136;-67
2022/06/16 08:21:55;;;;;;;1.80;1.70;;;20.50;57.60;;;;;;5085197;28;20055;-66
2022/06/16 08:24:22;;;;;;;1.83;1.73;;;20.50;57.60;;;;;;5093568;28;20039;-70
2022/06/16 08:26:49;;;;;;;1.88;1.77;;;20.60;57.60;;;;;;5097707;28;20511;-65
2022/06/16 08:29:18;;;;;;;2.10;1.77;;;20.60;57.60;;;;;;5092450;28;20130;-66
2022/06/16 08:31:46;;;;;;;2.92;1.90;;;20.60;57.70;;;;;;5086801;28;20105;-64
2022/06/16 08:34:13;;;;;;;1.80;1.70;;;20.60;57.60;;;;;;5088409;28;20139;-61
2022/06/16 08:36:41;;;;;;;2.92;1.73;;;20.60;57.70;;;;;;5096415;27;20483;-63
2022/06/16 08:39:08;;;;;;;1.50;1.40;;;20.60;57.80;;;;;;5091273;28;20135;-62
2022/06/16 08:41:48;;;;;;;3.80;1.65;;;20.60;57.90;;;;;;5088804;28;20454;-62
2022/06/16 08:44:56;;;;;;;2.67;1.67;;;20.60;58.00;;;;;;5091937;28;20075;-64
2022/06/16 08:47:39;;;;;;;3.53;1.88;;;20.70;58.00;;;;;;5091765;28;20073;-65
2022/06/16 08:50:34;;;;;;;2.10;1.90;;;20.70;58.40;;;;;;5088118;28;20516;-67
2022/06/16 08:53:39;;;;;;;2.13;1.92;;;20.60;58.50;;;;;;5091024;28;20693;-65
2022/06/16 08:56:14;;;;;;;1.50;1.40;;;20.70;58.70;;;;;;5090193;28;20549;-64
2022/06/16 08:59:21;;;;;;;1.80;1.70;;;20.70;58.70;;;;;;5091027;28;20462;-66
2022/06/16 09:01:56;;;;;;;2.60;1.83;;;20.70;58.40;;;;;;5087534;28;20044;-63
2022/06/16 09:04:32;;;;;;;2.08;1.88;;;20.70;58.90;;;;;;5088111;28;20519;-63
2022/06/16 09:07:12;;;;;;;2.88;1.80;;;20.70;58.90;;;;;;5086895;27;20051;-66
2022/06/16 09:10:23;;;;;;;2.85;1.73;;;20.80;58.90;;;;;;5090608;28;20127;-65
2022/06/16 09:13:26;;;;;;;1.75;1.65;;;20.80;58.90;;;;;;5092561;28;20044;-65
2022/06/16 09:16:26;;;;;;;1.48;1.48;;;20.80;58.90;;;;;;5089428;28;20044;-63
2022/06/16 09:19:23;;;;;;;1.52;1.40;;;20.90;58.80;;;;;;5094280;28;20047;-63
2022/06/16 09:22:21;;;;;;;2.08;1.52;;;20.90;58.80;;;;;;5090178;28;20508;-63
2022/06/16 09:25:17;;;;;;;1.83;1.73;;;20.90;58.80;;;;;;5090637;28;20105;-63
2022/06/16 09:27:54;;;;;;;2.45;1.67;;;20.90;59.00;;;;;;5091206;28;20040;-64
2022/06/16 09:30:27;;;;;;;1.50;1.40;;;20.90;59.00;;;;;;5084489;28;20159;-64
2022/06/16 09:33:01;;;;;;;1.35;1.25;;;20.90;59.30;;;;;;5091362;28;20047;-63
2022/06/16 09:35:35;;;;;;;1.73;1.65;;;20.90;59.20;;;;;;5084937;28;20047;-64
2022/06/16 09:38:29;;;;;;;1.60;1.50;;;21.00;59.10;;;;;;5093935;28;20487;-64
2022/06/16 09:44:36;;;;;;;1.60;1.50;;;21.00;59.10;;;;;;5090407;27;20078;-64
2022/06/16 09:47:13;;;;;;;1.92;1.83;;;21.10;59.00;;;;;;5083615;28;20300;-64
2022/06/16 09:49:45;;;;;;;3.55;1.73;;;21.10;59.10;;;;;;5087215;28;20048;-63
2022/06/16 09:52:39;;;;;;;1.70;1.60;;;21.10;59.10;;;;;;5087654;28;20463;-63
2022/06/16 09:55:18;;;;;;;1.85;1.75;;;21.10;58.90;;;;;;5092320;28;20079;-66
2022/06/16 09:57:52;;;;;;;1.70;1.60;;;21.20;58.80;;;;;;5092222;28;20043;-63
2022/06/16 10:00:23;;;;;;;2.03;1.85;;;21.20;58.50;;;;;;5086083;28;20145;-63
2022/06/16 10:03:03;;;;;;;2.00;1.90;;;21.10;58.30;;;;;;5086670;28;20424;-63
2022/06/16 10:05:57;;;;;;;1.73;1.63;;;21.10;57.90;;;;;;5086936;28;20075;-64
2022/06/16 10:08:39;;;;;;;2.00;1.85;;;21.10;57.70;;;;;;5078495;28;20082;-65
2022/06/16 10:11:19;;;;;;;2.03;1.83;;;21.10;58.80;;;;;;5082361;28;20440;-66
2022/06/16 10:14:02;;;;;;;2.55;1.90;;;21.30;59.20;;;;;;5093153;28;20093;-66
2022/06/16 10:16:39;;;;;;;2.13;2.03;;;21.40;58.60;;;;;;5086452;28;20138;-66
2022/06/16 10:19:06;;;;;;;3.80;2.10;;;21.50;57.40;;;;;;5088603;28;20468;-67
2022/06/16 10:21:35;;;;;;;2.10;2.00;;;21.70;56.60;;;;;;5089375;28;20055;-67
2022/06/16 10:24:06;;;;;;;1.70;1.60;;;21.80;56.00;;;;;;5089579;28;20043;-67
2022/06/16 10:26:35;;;;;;;4.70;2.45;;;21.90;55.70;;;;;;5086334;28;20603;-67
2022/06/16 10:29:25;;;;;;;3.67;1.55;;;22.00;55.30;;;;;;5088728;28;20415;-67
2022/06/16 10:31:55;;;;;;;2.17;2.07;;;22.00;54.90;;;;;;5084521;28;20105;-66
2022/06/16 10:34:30;;;;;;;;;;;22.10;54.70;;;;;;5089194;28;20055;-67
2022/06/16 10:37:14;;;;;;;1.85;1.67;;;22.10;54.70;;;;;;5086314;28;19974;-66
2022/06/16 10:39:57;;;;;;;3.38;2.00;;;22.10;54.60;;;;;;5089485;28;20049;-67
2022/06/16 10:42:47;;;;;;;1.40;1.35;;;22.20;54.70;;;;;;5089613;28;20054;-67
2022/06/16 10:45:26;;;;;;;2.25;1.80;;;22.10;54.60;;;;;;5099038;28;20051;-67
2022/06/16 10:48:01;;;;;;;5.18;1.88;;;22.10;54.80;;;;;;5092515;28;20047;-68
2022/06/16 10:50:42;;;;;;;2.20;1.67;;;22.00;54.90;;;;;;5092302;28;20063;-68
2022/06/16 10:53:28;;;;;;;1.45;1.40;;;22.10;54.90;;;;;;5087512;28;20113;-69
2022/06/16 10:56:03;;;;;;;1.77;1.67;;;22.10;54.90;;;;;;5086489;28;20484;-68
2022/06/16 10:58:41;;;;;;;1.98;1.60;;;22.10;55.00;;;;;;5084957;28;21598;-69
2022/06/16 11:01:29;;;;;;;2.03;1.92;;;22.00;54.90;;;;;;5094997;28;20048;-67
2022/06/16 11:04:12;;;;;;;1.80;1.58;;;22.10;55.00;;;;;;5092968;28;20131;-68
2022/06/16 11:06:47;;;;;;;1.75;1.65;;;22.10;55.00;;;;;;5092962;28;20039;-68
2022/06/16 11:09:22;;;;;;;1.60;1.50;;;22.10;54.90;;;;;;5090809;28;20052;-67
2022/06/16 11:12:03;;;;;;;1.33;1.33;;;22.10;54.90;;;;;;5085635;28;20555;-68
2022/06/16 11:14:35;;;;;;;1.83;1.73;;;22.10;54.90;;;;;;5086815;28;20510;-67
2022/06/16 11:17:09;;;;;;;1.20;1.20;;;22.10;54.60;;;;;;5087336;28;20044;-68
2022/06/16 11:19:47;;;;;;;1.25;1.17;;;22.10;54.20;;;;;;5089004;28;20078;-66
2022/06/16 11:22:31;;;;;;;1.58;1.48;;;21.90;54.50;;;;;;5087083;28;20125;-69
2022/06/16 11:25:19;;;;;;;1.40;1.30;;;21.80;55.00;;;;;;5086725;28;20378;-67
2022/06/16 11:27:56;;;;;;;1.70;1.60;;;21.60;55.30;;;;;;5086924;28;20074;-69
2022/06/16 11:30:37;;;;;;;1.92;1.80;;;21.50;55.90;;;;;;5088171;28;20047;-69
2022/06/16 11:34:06;;;;;;;1.77;1.67;;;21.40;56.50;;;;;;5090848;28;20059;-67
2022/06/16 11:36:31;;;;;;;1.75;1.67;;;21.40;57.10;;;;;;5087804;28;20044;-67
2022/06/16 11:39:15;;;;;;;1.42;1.33;;;21.40;57.00;;;;;;5087144;28;20058;-66
2022/06/16 11:41:46;;;;;;;1.88;1.50;;;21.40;57.30;;;;;;5086650;28;20044;-68
2022/06/16 11:44:42;;;;;;;1.73;1.63;;;21.30;57.30;;;;;;5087776;28;20043;-70
2022/06/16 11:47:36;;;;;;;1.50;1.40;;;21.30;57.20;;;;;;5091730;28;20086;-66
2022/06/16 11:50:13;;;;;;;2.85;1.70;;;21.30;57.20;;;;;;5087494;27;20587;-67
2022/06/16 11:53:08;;;;;;;1.40;1.30;;;21.30;57.20;;;;;;5094245;28;20088;-64
2022/06/16 11:55:57;;;;;;;1.70;1.60;;;21.30;57.20;;;;;;5090482;28;20048;-66
2022/06/16 11:58:51;;;;;;;1.60;1.50;;;21.20;57.10;;;;;;5090770;27;20078;-67
2022/06/16 12:01:38;;;;;;;1.63;1.50;;;21.20;57.10;;;;;;5089614;28;20074;-66
2022/06/16 12:04:42;;;;;;;1.50;1.50;;;21.20;57.10;;;;;;5090356;28;20044;-68
2022/06/16 12:07:49;;;;;;;2.08;1.45;;;21.10;56.90;;;;;;5089951;28;20056;-68
2022/06/16 12:10:40;;;;;;;3.95;2.17;;;21.00;56.90;;;;;;5075203;28;20051;-69
2022/06/16 12:13:49;;;;;;;1.70;1.60;;;21.00;56.90;;;;;;5090683;28;20051;-68
2022/06/16 12:16:36;;;;;;;1.10;1.10;;;21.00;57.10;;;;;;5095004;28;20059;-66
2022/06/16 12:19:23;;;;;;;1.13;1.13;;;21.00;57.30;;;;;;5098370;27;20086;-66
2022/06/16 12:21:55;;;;;;;1.70;1.60;;;20.90;57.70;;;;;;5088037;28;20039;-64
2022/06/16 12:24:32;;;;;;;1.60;1.50;;;20.90;58.10;;;;;;5097650;28;20873;-64
2022/06/16 12:27:07;;;;;;;1.92;1.75;;;20.90;57.80;;;;;;5090663;28;20048;-66
2022/06/16 12:30:14;;;;;;;1.35;1.27;;;20.90;57.70;;;;;;5093774;28;20446;-67
2022/06/16 12:32:59;;;;;;;1.60;1.50;;;20.90;57.60;;;;;;5096935;28;20105;-66
2022/06/16 12:35:46;;;;;;;1.50;1.40;;;20.90;57.50;;;;;;5088211;28;20851;-66
2022/06/16 12:38:31;;;;;;;1.90;1.30;;;20.90;57.50;;;;;;5090158;28;20059;-66
2022/06/16 12:41:12;;;;;;;1.42;1.42;;;20.90;57.60;;;;;;5092726;28;20086;-66
2022/06/16 12:43:42;;;;;;;;;;;20.90;57.90;;;;;;5100686;27;20040;-67
2022/06/16 12:46:16;;;;;;;1.30;1.30;;;20.90;57.80;;;;;;5098881;27;20006;-69
2022/06/16 12:48:59;;;;;;;1.67;1.58;;;20.90;58.00;;;;;;5100261;27;20084;-69
2022/06/16 12:51:34;;;;;;;1.63;1.52;;;20.90;58.00;;;;;;5094364;28;20056;-67
2022/06/16 12:54:06;;;;;;;1.95;1.55;;;20.90;58.20;;;;;;5088247;27;20071;-68
2022/06/16 12:56:50;;;;;;;1.50;1.40;;;21.00;58.20;;;;;;5087830;28;20048;-67
2022/06/16 12:59:40;;;;;;;1.63;1.52;;;21.00;58.10;;;;;;5088206;27;20127;-68
2022/06/16 13:02:25;;;;;;;1.20;1.20;;;21.00;58.20;;;;;;5091659;28;20040;-67
2022/06/16 13:04:55;;;;;;;2.35;1.20;;;21.00;58.10;;;;;;5088400;28;20055;-67
2022/06/16 13:07:27;;;;;;;1.50;1.40;;;21.00;58.10;;;;;;5092327;27;20472;-65
2022/06/16 13:09:57;;;;;;;1.55;1.45;;;21.10;58.20;;;;;;5092465;28;20047;-65
2022/06/16 13:12:30;;;;;;;1.40;1.30;;;21.10;58.10;;;;;;5090545;28;20055;-65
2022/06/16 13:15:06;;;;;;;1.10;1.10;;;21.10;58.30;;;;;;5092154;27;20040;-67
2022/06/16 13:17:47;;;;;;;1.42;1.33;;;21.10;58.20;;;;;;5094733;27;20504;-66
2022/06/16 13:20:17;;;;;;;1.15;1.15;;;21.20;58.10;;;;;;5092573;27;20466;-66
2022/06/16 13:22:54;;;;;;;1.90;1.80;;;21.20;58.20;;;;;;5090191;28;20052;-68
2022/06/16 13:25:47;;;;;;;1.65;1.55;;;21.20;58.20;;;;;;5087916;28;20082;-67
2022/06/16 13:28:36;;;;;;;1.75;1.65;;;21.20;58.30;;;;;;5085061;28;20048;-65
2022/06/16 13:31:28;;;;;;;1.40;1.27;;;21.20;58.50;;;;;;5095652;27;20051;-65
2022/06/16 13:34:19;;;;;;;1.75;1.48;;;21.30;58.70;;;;;;5090467;28;20044;-70
2022/06/16 13:36:52;;;;;;;2.35;1.30;;;21.30;58.70;;;;;;5088290;27;20052;-68
2022/06/16 13:40:01;;;;;;;1.45;1.40;;;21.30;59.10;;;;;;5087826;28;20476;-67
2022/06/16 13:42:46;;;;;;;1.48;1.48;;;21.30;58.60;;;;;;5089969;28;20054;-70
2022/06/16 13:45:52;;;;;;;2.00;1.45;;;21.30;58.60;;;;;;5093762;28;20229;-64
2022/06/16 13:48:45;;;;;;;1.95;1.17;;;21.30;58.80;;;;;;5077466;28;20496;-67